createdAt,value
2018-11-20T00:00:57.133Z,11.60
2018-11-20T00:01:57.182Z,11.90
2018-11-20T00:02:57.208Z,11.70
2018-11-20T00:03:57.183Z,11.30
2018-11-20T00:04:57.156Z,11.70
2018-11-20T00:05:57.140Z,11.10
2018-11-20T00:06:57.164Z,11.20
2018-11-20T00:07:57.246Z,11.20
2018-11-20T00:08:57.484Z,11.50
2018-11-20T00:09:57.136Z,11.50
2018-11-20T00:10:57.408Z,11.60
2018-11-20T00:11:57.389Z,11.40
2018-11-20T00:12:57.181Z,10.70
2018-11-20T00:13:57.145Z,11.40
2018-11-20T00:14:57.201Z,11.80
2018-11-20T00:15:57.125Z,11.60
2018-11-20T00:16:57.152Z,11.30
2018-11-20T00:17:56.776Z,12.30
2018-11-20T00:18:57.371Z,11.30
2018-11-20T00:19:57.399Z,11.30
2018-11-20T00:20:57.390Z,11.80
2018-11-20T00:21:57.157Z,12.20
2018-11-20T00:22:57.156Z,12.50
2018-11-20T00:23:57.413Z,11.90
2018-11-20T00:24:57.196Z,11.60
2018-11-20T00:25:57.157Z,11.50
2018-11-20T00:26:57.156Z,12.10
2018-11-20T00:27:57.128Z,12.20
2018-11-20T00:28:57.188Z,11.90
2018-11-20T00:29:57.131Z,12.30
2018-11-20T00:30:56.872Z,12.50
2018-11-20T00:31:59.009Z,12.80
2018-11-20T00:32:57.392Z,12.90
2018-11-20T00:33:56.543Z,12.80
2018-11-20T00:34:57.179Z,13.10
2018-11-20T00:35:57.717Z,13.50
2018-11-20T00:36:57.014Z,12.30
2018-11-20T00:37:56.920Z,13.50
2018-11-20T00:38:56.917Z,12.70
2018-11-20T00:39:56.876Z,13.90
2018-11-20T00:40:56.916Z,13.30
2018-11-20T00:41:56.909Z,13.80
2018-11-20T00:42:58.987Z,13.50
2018-11-20T00:43:58.709Z,13.10
2018-11-20T00:44:58.872Z,13.60
2018-11-20T00:45:59.375Z,14.00
2018-11-20T00:46:57.382Z,13.10
2018-11-20T00:47:56.458Z,13.60
2018-11-20T00:48:56.817Z,13.70
2018-11-20T00:49:56.711Z,12.90
2018-11-20T00:50:56.772Z,13.90
2018-11-20T00:51:56.781Z,13.40
2018-11-20T00:52:56.712Z,13.60
2018-11-20T00:53:56.694Z,12.70
2018-11-20T00:54:56.581Z,13.60
2018-11-20T00:55:56.737Z,13.20
2018-11-20T00:56:57.823Z,13.80
2018-11-20T00:57:56.467Z,13.90
2018-11-20T00:58:56.678Z,12.70
2018-11-20T00:59:56.880Z,13.80
2018-11-20T01:00:56.919Z,14.20
2018-11-20T01:01:56.886Z,13.50
2018-11-20T01:02:56.921Z,13.60
2018-11-20T01:03:56.653Z,13.30
2018-11-20T01:04:56.874Z,12.90
2018-11-20T01:05:56.363Z,14.40
2018-11-20T01:06:56.881Z,13.50
2018-11-20T01:07:56.478Z,13.60
2018-11-20T01:08:56.702Z,13.30
2018-11-20T01:09:56.920Z,13.30
2018-11-20T01:10:56.673Z,13.30
2018-11-20T01:11:56.698Z,13.20
2018-11-20T01:12:56.876Z,14.00
2018-11-20T01:13:56.915Z,13.40
2018-11-20T01:14:56.684Z,12.90
2018-11-20T01:15:56.893Z,14.00
2018-11-20T01:16:56.875Z,13.40
2018-11-20T01:17:56.666Z,13.00
2018-11-20T01:18:56.384Z,14.20
2018-11-20T01:19:56.896Z,14.10
2018-11-20T01:20:56.876Z,13.30
2018-11-20T01:21:56.716Z,13.60
2018-11-20T01:22:56.879Z,14.00
2018-11-20T01:23:56.853Z,12.80
2018-11-20T01:24:56.584Z,13.50
2018-11-20T01:25:56.874Z,13.80
2018-11-20T01:26:56.656Z,13.70
2018-11-20T01:27:56.883Z,13.60
2018-11-20T01:28:56.619Z,13.50
2018-11-20T01:29:56.163Z,13.10
2018-11-20T01:30:56.201Z,13.70
2018-11-20T01:31:56.885Z,13.90
2018-11-20T01:32:56.928Z,14.30
2018-11-20T01:33:56.792Z,14.00
2018-11-20T01:34:56.900Z,13.40
2018-11-20T01:35:56.916Z,14.00
2018-11-20T01:36:56.916Z,13.50
2018-11-20T01:37:56.780Z,12.80
2018-11-20T01:38:56.745Z,13.50
2018-11-20T01:39:56.879Z,13.30
2018-11-20T01:40:56.901Z,13.00
2018-11-20T01:41:56.687Z,14.00
2018-11-20T01:42:56.771Z,13.40
2018-11-20T01:43:56.716Z,13.20
2018-11-20T01:44:56.914Z,12.80
2018-11-20T01:45:56.897Z,13.30
2018-11-20T01:46:56.678Z,12.80
2018-11-20T01:47:56.701Z,13.20
2018-11-20T01:48:56.878Z,13.30
2018-11-20T01:49:56.983Z,13.50
2018-11-20T01:50:56.384Z,12.90
2018-11-20T01:51:56.413Z,12.50
2018-11-20T01:52:56.389Z,12.50
2018-11-20T01:53:56.421Z,13.20
2018-11-20T01:54:56.371Z,12.80
2018-11-20T01:55:56.381Z,12.40
2018-11-20T01:56:56.307Z,11.20
2018-11-20T01:57:56.384Z,12.60
2018-11-20T01:58:56.463Z,12.10
2018-11-20T01:59:55.928Z,12.90
2018-11-20T02:00:56.317Z,12.30
2018-11-20T02:01:56.229Z,12.80
2018-11-20T02:02:56.383Z,12.30
2018-11-20T02:03:55.962Z,12.10
2018-11-20T02:04:56.295Z,12.60
2018-11-20T02:05:56.246Z,12.50
2018-11-20T02:06:56.387Z,12.00
2018-11-20T02:07:56.404Z,12.40
2018-11-20T02:08:56.320Z,12.30
2018-11-20T02:09:56.200Z,13.10
2018-11-20T02:10:56.415Z,13.10
2018-11-20T02:11:55.958Z,13.00
2018-11-20T02:12:56.186Z,12.70
2018-11-20T02:13:56.385Z,11.80
2018-11-20T02:14:56.428Z,12.90
2018-11-20T02:15:56.374Z,12.40
2018-11-20T02:16:56.411Z,11.90
2018-11-20T02:17:56.160Z,12.10
2018-11-20T02:18:56.191Z,12.60
2018-11-20T02:19:55.881Z,13.20
2018-11-20T02:20:56.263Z,13.00
2018-11-20T02:21:56.135Z,13.30
2018-11-20T02:22:56.329Z,12.70
2018-11-20T02:23:56.197Z,13.10
2018-11-20T02:24:56.255Z,12.90
2018-11-20T02:25:56.157Z,12.20
2018-11-20T02:26:55.767Z,13.00
2018-11-20T02:27:56.154Z,14.10
2018-11-20T02:28:55.786Z,13.70
2018-11-20T02:29:55.717Z,13.20
2018-11-20T02:30:56.166Z,13.10
2018-11-20T02:31:56.422Z,13.30
2018-11-20T02:32:56.102Z,13.80
2018-11-20T02:33:55.885Z,13.20
2018-11-20T02:34:55.672Z,12.50
2018-11-20T02:35:56.125Z,13.20
2018-11-20T02:36:56.140Z,13.10
2018-11-20T02:37:56.428Z,13.00
2018-11-20T02:38:56.391Z,13.00
2018-11-20T02:39:56.408Z,12.60
2018-11-20T02:40:55.681Z,12.40
2018-11-20T02:41:56.161Z,12.60
2018-11-20T02:42:56.126Z,12.50
2018-11-20T02:43:56.164Z,12.80
2018-11-20T02:44:56.380Z,12.80
2018-11-20T02:45:56.189Z,13.10
2018-11-20T02:46:56.139Z,12.90
2018-11-20T02:47:56.219Z,11.70
2018-11-20T02:48:56.373Z,13.00
2018-11-20T02:49:56.412Z,12.90
2018-11-20T02:50:56.407Z,12.30
2018-11-20T02:51:56.191Z,12.80
2018-11-20T02:52:56.407Z,12.20
2018-11-20T02:53:57.996Z,12.00
2018-11-20T02:54:56.141Z,11.80
2018-11-20T02:55:56.135Z,12.80
2018-11-20T02:56:56.089Z,11.50
2018-11-20T02:57:56.164Z,12.20
2018-11-20T02:58:56.082Z,12.20
2018-11-20T02:59:56.138Z,12.10
2018-11-20T03:00:56.424Z,12.00
2018-11-20T03:01:56.158Z,12.80
2018-11-20T03:02:56.424Z,12.10
2018-11-20T03:03:55.938Z,12.20
2018-11-20T03:04:59.481Z,11.70
2018-11-20T03:05:55.882Z,12.40
2018-11-20T03:06:55.931Z,12.70
2018-11-20T03:07:55.887Z,12.60
2018-11-20T03:08:55.732Z,12.20
2018-11-20T03:09:55.753Z,12.70
2018-11-20T03:10:55.447Z,11.90
2018-11-20T03:11:57.931Z,12.40
2018-11-20T03:12:55.896Z,12.80
2018-11-20T03:13:55.828Z,12.40
2018-11-20T03:14:55.893Z,12.20
2018-11-20T03:15:55.813Z,12.30
2018-11-20T03:16:57.704Z,12.10
2018-11-20T03:17:55.892Z,11.30
2018-11-20T03:18:55.885Z,11.30
2018-11-20T03:19:55.893Z,11.20
2018-11-20T03:20:55.788Z,11.70
2018-11-20T03:21:55.403Z,11.50
2018-11-20T03:22:55.638Z,12.10
2018-11-20T03:23:55.707Z,11.60
2018-11-20T03:24:55.891Z,12.20
2018-11-20T03:25:55.886Z,11.40
2018-11-20T03:26:56.437Z,12.20
2018-11-20T03:27:55.707Z,12.30
2018-11-20T03:28:55.676Z,11.60
2018-11-20T03:29:55.911Z,11.20
2018-11-20T03:30:55.751Z,11.90
2018-11-20T03:31:55.705Z,12.20
2018-11-20T03:32:55.915Z,11.70
2018-11-20T03:33:55.635Z,11.40
2018-11-20T03:34:55.657Z,11.90
2018-11-20T03:35:55.694Z,11.80
2018-11-20T03:36:55.708Z,12.20
2018-11-20T03:37:55.898Z,12.20
2018-11-20T03:38:55.652Z,12.20
2018-11-20T03:39:55.689Z,12.10
2018-11-20T03:40:55.929Z,12.50
2018-11-20T03:41:55.888Z,12.70
2018-11-20T03:42:55.726Z,12.20
2018-11-20T03:43:55.665Z,11.80
2018-11-20T03:44:55.645Z,13.00
2018-11-20T03:45:55.890Z,12.50
2018-11-20T03:46:55.666Z,12.80
2018-11-20T03:47:55.706Z,12.30
2018-11-20T03:48:55.584Z,12.40
2018-11-20T03:49:55.704Z,13.00
2018-11-20T03:50:55.655Z,13.20
2018-11-20T03:51:57.552Z,13.50
2018-11-20T03:52:55.755Z,13.20
2018-11-20T03:53:55.779Z,13.10
2018-11-20T03:54:55.723Z,13.20
2018-11-20T03:55:55.708Z,13.30
2018-11-20T03:56:55.811Z,13.60
2018-11-20T03:57:57.517Z,13.60
2018-11-20T03:58:55.775Z,13.20
2018-11-20T03:59:55.810Z,13.90
2018-11-20T04:00:56.225Z,13.30
2018-11-20T04:01:55.733Z,13.40
2018-11-20T04:02:55.914Z,13.90
2018-11-20T04:03:55.181Z,14.00
2018-11-20T04:04:55.662Z,13.30
2018-11-20T04:05:55.752Z,13.60
2018-11-20T04:06:55.856Z,13.60
2018-11-20T04:07:55.985Z,14.00
2018-11-20T04:08:55.760Z,13.20
2018-11-20T04:09:55.682Z,14.10
2018-11-20T04:10:55.974Z,13.90
2018-11-20T04:11:55.774Z,13.80
2018-11-20T04:12:55.587Z,13.50
2018-11-20T04:13:54.974Z,13.70
2018-11-20T04:14:55.827Z,13.20
2018-11-20T04:15:55.186Z,13.30
2018-11-20T04:16:55.485Z,13.60
2018-11-20T04:17:55.148Z,13.50
2018-11-20T04:18:55.486Z,13.40
2018-11-20T04:19:55.271Z,14.30
2018-11-20T04:20:55.283Z,14.10
2018-11-20T04:21:55.299Z,13.70
2018-11-20T04:22:55.413Z,14.20
2018-11-20T04:23:55.228Z,13.40
2018-11-20T04:24:55.566Z,13.20
2018-11-20T04:25:55.375Z,13.10
2018-11-20T04:26:55.390Z,13.20
2018-11-20T04:27:55.445Z,13.70
2018-11-20T04:28:55.822Z,12.70
2018-11-20T04:29:55.775Z,13.60
2018-11-20T04:30:57.245Z,13.90
2018-11-20T04:31:55.414Z,13.10
2018-11-20T04:32:55.394Z,12.90
2018-11-20T04:33:55.455Z,12.40
2018-11-20T04:34:55.403Z,13.20
2018-11-20T04:35:55.393Z,13.70
2018-11-20T04:36:55.755Z,12.90
2018-11-20T04:37:55.304Z,12.70
2018-11-20T04:38:55.088Z,13.90
2018-11-20T04:39:55.120Z,12.80
2018-11-20T04:40:55.371Z,13.40
2018-11-20T04:41:55.185Z,13.50
2018-11-20T04:42:54.763Z,13.30
2018-11-20T04:43:55.817Z,13.60
2018-11-20T04:44:54.840Z,13.00
2018-11-20T04:45:55.853Z,13.30
2018-11-20T04:46:55.171Z,12.80
2018-11-20T04:47:55.490Z,13.70
2018-11-20T04:48:55.144Z,13.40
2018-11-20T04:49:55.261Z,13.30
2018-11-20T04:50:55.187Z,13.10
2018-11-20T04:51:54.892Z,14.30
2018-11-20T04:52:55.223Z,13.60
2018-11-20T04:53:55.442Z,13.40
2018-11-20T04:54:55.448Z,13.00
2018-11-20T04:55:55.750Z,13.50
2018-11-20T04:56:55.107Z,13.20
2018-11-20T04:57:55.486Z,13.80
2018-11-20T04:58:55.454Z,13.90
2018-11-20T04:59:55.493Z,13.50
2018-11-20T05:00:55.461Z,13.20
2018-11-20T05:01:55.216Z,12.90
2018-11-20T05:02:55.164Z,13.50
2018-11-20T05:03:55.497Z,13.10
2018-11-20T05:04:54.901Z,13.80
2018-11-20T05:05:55.498Z,13.80
2018-11-20T05:06:55.394Z,14.30
2018-11-20T05:07:55.427Z,14.50
2018-11-20T05:08:54.992Z,14.10
2018-11-20T05:09:55.395Z,13.60
2018-11-20T05:10:55.390Z,13.90
2018-11-20T05:11:55.460Z,14.40
2018-11-20T05:12:55.464Z,14.70
2018-11-20T05:13:55.285Z,14.40
2018-11-20T05:14:55.297Z,14.40
2018-11-20T05:15:55.435Z,14.60
2018-11-20T05:16:54.614Z,14.50
2018-11-20T05:17:55.397Z,14.70
2018-11-20T05:18:55.436Z,15.10
2018-11-20T05:19:55.435Z,14.60
2018-11-20T05:20:55.424Z,15.00
2018-11-20T05:21:55.445Z,15.00
2018-11-20T05:22:55.194Z,14.80
2018-11-20T05:23:55.431Z,15.30
2018-11-20T05:24:55.273Z,14.30
2018-11-20T05:25:55.426Z,14.30
2018-11-20T05:26:55.154Z,14.70
2018-11-20T05:27:55.546Z,15.10
2018-11-20T05:28:55.260Z,15.30
2018-11-20T05:29:55.204Z,15.40
2018-11-20T05:30:57.060Z,15.50
2018-11-20T05:31:54.825Z,15.70
2018-11-20T05:32:55.055Z,16.10
2018-11-20T05:33:56.786Z,14.90
2018-11-20T05:34:55.454Z,15.70
2018-11-20T05:35:54.461Z,16.00
2018-11-20T05:36:54.860Z,16.00
2018-11-20T05:37:54.933Z,16.20
2018-11-20T05:38:54.925Z,15.80
2018-11-20T05:39:55.459Z,15.50
2018-11-20T05:40:54.777Z,16.70
2018-11-20T05:41:54.722Z,15.50
2018-11-20T05:42:56.701Z,15.70
2018-11-20T05:43:54.371Z,17.30
2018-11-20T05:44:55.184Z,16.60
2018-11-20T05:45:54.805Z,16.90
2018-11-20T05:46:54.919Z,16.60
2018-11-20T05:47:55.266Z,16.30
2018-11-20T05:48:55.269Z,17.10
2018-11-20T05:49:54.856Z,17.00
2018-11-20T05:50:54.944Z,16.60
2018-11-20T05:51:55.255Z,17.70
2018-11-20T05:52:54.455Z,17.30
2018-11-20T05:53:55.226Z,17.50
2018-11-20T05:54:54.812Z,17.00
2018-11-20T05:55:54.784Z,17.80
2018-11-20T05:56:55.217Z,17.70
2018-11-20T05:57:54.960Z,17.70
2018-11-20T05:58:54.630Z,16.80
2018-11-20T05:59:54.459Z,17.10
2018-11-20T06:00:55.274Z,17.00
2018-11-20T06:01:54.893Z,17.20
2018-11-20T06:02:54.939Z,17.40
2018-11-20T06:03:55.258Z,17.40
2018-11-20T06:04:55.485Z,18.00
2018-11-20T06:05:54.913Z,17.60
2018-11-20T06:06:54.685Z,17.60
2018-11-20T06:07:54.943Z,18.00
2018-11-20T06:08:56.458Z,18.00
2018-11-20T06:09:55.238Z,18.20
2018-11-20T06:10:54.899Z,18.20
2018-11-20T06:11:55.687Z,19.10
2018-11-20T06:12:54.954Z,18.60
2018-11-20T06:13:54.805Z,18.20
2018-11-20T06:14:54.722Z,18.70
2018-11-20T06:15:54.688Z,18.30
2018-11-20T06:16:54.907Z,18.80
2018-11-20T06:17:56.494Z,19.10
2018-11-20T06:18:54.737Z,20.00
2018-11-20T06:19:54.944Z,18.70
2018-11-20T06:20:54.948Z,19.20
2018-11-20T06:21:55.408Z,19.80
2018-11-20T06:22:54.688Z,20.40
2018-11-20T06:23:54.634Z,20.30
2018-11-20T06:24:54.654Z,20.10
2018-11-20T06:25:55.022Z,20.30
2018-11-20T06:26:54.636Z,20.50
2018-11-20T06:27:55.268Z,21.90
2018-11-20T06:28:54.324Z,22.50
2018-11-20T06:29:54.838Z,22.20
2018-11-20T06:30:54.899Z,22.00
2018-11-20T06:31:54.436Z,21.70
2018-11-20T06:32:54.014Z,21.90
2018-11-20T06:33:54.163Z,21.50
2018-11-20T06:34:54.501Z,22.30
2018-11-20T06:35:53.161Z,21.90
2018-11-20T06:36:54.096Z,22.60
2018-11-20T06:37:54.430Z,22.50
2018-11-20T06:38:54.451Z,22.10
2018-11-20T06:39:55.332Z,22.50
2018-11-20T06:40:53.102Z,21.60
2018-11-20T06:41:54.478Z,21.70
2018-11-20T06:42:53.082Z,22.40
2018-11-20T06:43:55.226Z,22.00
2018-11-20T06:44:53.646Z,22.90
2018-11-20T06:45:54.455Z,21.90
2018-11-20T06:46:54.448Z,22.10
2018-11-20T06:47:54.464Z,22.30
2018-11-20T06:48:56.946Z,22.70
2018-11-20T06:49:54.450Z,22.40
2018-11-20T06:50:54.389Z,22.10
2018-11-20T06:51:53.909Z,22.20
2018-11-20T06:52:56.185Z,22.60
2018-11-20T06:53:53.069Z,22.70
2018-11-20T06:54:52.993Z,22.50
2018-11-20T06:55:56.834Z,23.30
2018-11-20T06:56:54.273Z,21.90
2018-11-20T06:57:52.988Z,21.30
2018-11-20T06:58:52.930Z,21.60
2018-11-20T06:59:53.986Z,21.70
2018-11-20T07:00:53.408Z,22.30
2018-11-20T07:01:54.521Z,21.50
2018-11-20T07:02:54.454Z,23.20
2018-11-20T07:03:52.874Z,22.00
2018-11-20T07:04:54.452Z,22.30
2018-11-20T07:05:54.688Z,22.00
2018-11-20T07:06:54.261Z,22.70
2018-11-20T07:07:53.677Z,21.10
2018-11-20T07:08:54.617Z,21.70
2018-11-20T07:09:52.845Z,22.00
2018-11-20T07:10:54.260Z,21.40
2018-11-20T07:11:53.947Z,21.30
2018-11-20T07:12:53.908Z,20.70
2018-11-20T07:13:53.900Z,20.90
2018-11-20T07:14:52.792Z,20.20
2018-11-20T07:15:55.165Z,19.70
2018-11-20T07:16:55.311Z,20.50
2018-11-20T07:17:52.791Z,20.40
2018-11-20T07:18:52.991Z,20.40
2018-11-20T07:19:52.899Z,20.20
2018-11-20T07:20:52.865Z,20.00
2018-11-20T07:21:52.860Z,20.20
2018-11-20T07:22:52.736Z,19.00
2018-11-20T07:23:52.717Z,18.70
2018-11-20T07:24:53.945Z,20.00
2018-11-20T07:25:54.521Z,20.10
2018-11-20T07:26:54.184Z,19.10
2018-11-20T07:27:54.407Z,19.90
2018-11-20T07:28:52.765Z,19.90
2018-11-20T07:29:53.832Z,19.60
2018-11-20T07:30:52.835Z,19.00
2018-11-20T07:31:53.482Z,19.00
2018-11-20T07:32:53.902Z,18.70
2018-11-20T07:33:53.413Z,18.90
2018-11-20T07:34:53.839Z,19.40
2018-11-20T07:35:54.131Z,19.60
2018-11-20T07:36:54.907Z,18.60
2018-11-20T07:37:54.422Z,18.60
2018-11-20T07:38:54.403Z,18.80
2018-11-20T07:39:53.958Z,19.50
2018-11-20T07:40:54.252Z,19.00
2018-11-20T07:41:54.745Z,20.10
2018-11-20T07:42:53.946Z,18.70
2018-11-20T07:43:54.039Z,18.70
2018-11-20T07:44:54.315Z,18.10
2018-11-20T07:45:53.945Z,19.20
2018-11-20T07:46:53.958Z,19.80
2018-11-20T07:47:53.978Z,19.80
2018-11-20T07:48:54.757Z,18.50
2018-11-20T07:49:54.497Z,19.90
2018-11-20T07:50:54.270Z,19.60
2018-11-20T07:51:53.958Z,18.60
2018-11-20T07:52:53.944Z,18.80
2018-11-20T07:53:54.184Z,19.20
2018-11-20T07:54:54.410Z,19.90
2018-11-20T07:55:54.011Z,20.30
2018-11-20T07:56:54.409Z,19.60
2018-11-20T07:57:54.403Z,19.40
2018-11-20T07:58:55.912Z,19.60
2018-11-20T07:59:53.905Z,19.40
2018-11-20T08:00:54.251Z,20.30
2018-11-20T08:01:53.916Z,20.20
2018-11-20T08:02:54.471Z,19.80
2018-11-20T08:03:56.019Z,19.30
2018-11-20T08:04:54.278Z,18.90
2018-11-20T08:05:54.905Z,20.30
2018-11-20T08:06:53.964Z,20.70
2018-11-20T08:07:54.354Z,20.20
2018-11-20T08:08:54.044Z,19.50
2018-11-20T08:09:54.138Z,20.90
2018-11-20T08:10:53.909Z,19.70
2018-11-20T08:11:53.530Z,21.20
2018-11-20T08:12:55.825Z,19.70
2018-11-20T08:13:53.886Z,20.20
2018-11-20T08:14:53.942Z,21.50
2018-11-20T08:15:54.039Z,21.10
2018-11-20T08:16:54.443Z,21.20
2018-11-20T08:17:53.905Z,21.00
2018-11-20T08:18:54.386Z,21.10
2018-11-20T08:19:54.489Z,21.80
2018-11-20T08:20:53.760Z,21.50
2018-11-20T08:21:53.907Z,21.70
2018-11-20T08:22:53.948Z,21.50
2018-11-20T08:23:53.390Z,20.80
2018-11-20T08:24:53.964Z,21.70
2018-11-20T08:25:53.927Z,20.80
2018-11-20T08:26:54.003Z,20.80
2018-11-20T08:27:53.780Z,21.80
2018-11-20T08:28:53.862Z,21.60
2018-11-20T08:29:53.950Z,21.10
2018-11-20T08:30:54.046Z,21.20
2018-11-20T08:31:53.726Z,22.00
2018-11-20T08:32:54.008Z,21.50
2018-11-20T08:33:55.726Z,21.30
2018-11-20T08:34:53.967Z,22.20
2018-11-20T08:35:53.757Z,20.50
2018-11-20T08:36:53.912Z,20.90
2018-11-20T08:37:54.355Z,21.30
2018-11-20T08:38:54.073Z,21.80
2018-11-20T08:39:53.908Z,20.90
2018-11-20T08:40:53.999Z,20.80
2018-11-20T08:41:54.323Z,20.60
2018-11-20T08:42:54.495Z,20.20
2018-11-20T08:43:53.942Z,21.40
2018-11-20T08:44:54.183Z,21.20
2018-11-20T08:45:53.924Z,21.90
2018-11-20T08:46:53.725Z,21.10
2018-11-20T08:47:54.342Z,20.90
2018-11-20T08:48:53.516Z,20.50
2018-11-20T08:49:53.973Z,20.10
2018-11-20T08:50:54.816Z,21.40
2018-11-20T08:51:54.399Z,21.10
2018-11-20T08:52:53.917Z,21.10
2018-11-20T08:53:54.138Z,20.00
2018-11-20T08:54:54.746Z,21.10
2018-11-20T08:55:53.475Z,20.60
2018-11-20T08:56:53.900Z,21.50
2018-11-20T08:57:54.258Z,20.20
2018-11-20T08:58:53.999Z,21.10
2018-11-20T08:59:53.450Z,21.20
2018-11-20T09:00:53.928Z,21.10
2018-11-20T09:01:54.025Z,19.60
2018-11-20T09:02:53.208Z,20.80
2018-11-20T09:03:53.476Z,19.80
2018-11-20T09:04:53.961Z,20.60
2018-11-20T09:05:53.993Z,21.30
2018-11-20T09:06:54.012Z,20.50
2018-11-20T09:07:54.267Z,21.10
2018-11-20T09:08:53.995Z,20.60
2018-11-20T09:09:54.040Z,20.40
2018-11-20T09:10:53.989Z,20.00
2018-11-20T09:11:54.281Z,20.10
2018-11-20T09:12:53.461Z,20.60
2018-11-20T09:13:53.486Z,19.60
2018-11-20T09:14:53.871Z,19.40
2018-11-20T09:15:53.462Z,20.20
2018-11-20T09:16:54.296Z,20.10
2018-11-20T09:17:53.552Z,20.60
2018-11-20T09:18:53.483Z,19.60
2018-11-20T09:19:53.564Z,19.80
2018-11-20T09:20:53.964Z,20.30
2018-11-20T09:21:53.815Z,20.70
2018-11-20T09:22:53.485Z,21.20
2018-11-20T09:23:53.985Z,19.70
2018-11-20T09:24:53.795Z,20.50
2018-11-20T09:25:53.875Z,19.50
2018-11-20T09:26:53.863Z,20.00
2018-11-20T09:27:53.373Z,20.00
2018-11-20T09:28:54.055Z,20.50
2018-11-20T09:29:53.189Z,19.80
2018-11-20T09:30:53.750Z,21.00
2018-11-20T09:31:53.766Z,20.90
2018-11-20T09:32:53.451Z,20.20
2018-11-20T09:33:53.416Z,19.70
2018-11-20T09:34:53.217Z,20.40
2018-11-20T09:35:53.581Z,20.80
2018-11-20T09:36:53.914Z,20.00
2018-11-20T09:37:53.411Z,20.90
2018-11-20T09:38:53.375Z,18.80
2018-11-20T09:39:53.416Z,19.50
2018-11-20T09:40:54.090Z,19.60
2018-11-20T09:41:53.755Z,20.10
2018-11-20T09:42:55.758Z,20.10
2018-11-20T09:43:53.019Z,20.60
2018-11-20T09:44:53.325Z,19.20
2018-11-20T09:45:53.053Z,19.90
2018-11-20T09:46:53.537Z,19.80
2018-11-20T09:47:53.489Z,18.70
2018-11-20T09:48:53.961Z,18.30
2018-11-20T09:49:55.900Z,19.20
2018-11-20T09:50:53.411Z,18.70
2018-11-20T09:51:53.474Z,19.50
2018-11-20T09:52:53.714Z,18.90
2018-11-20T09:53:52.793Z,19.60
2018-11-20T09:54:53.725Z,18.80
2018-11-20T09:55:53.374Z,19.80
2018-11-20T09:56:53.795Z,18.30
2018-11-20T09:57:53.771Z,19.30
2018-11-20T09:58:53.301Z,19.20
2018-11-20T09:59:53.373Z,19.40
2018-11-20T10:00:53.799Z,18.50
2018-11-20T10:01:53.944Z,18.30
2018-11-20T10:02:53.480Z,19.60
2018-11-20T10:03:53.526Z,18.80
2018-11-20T10:04:53.168Z,18.80
2018-11-20T10:05:53.856Z,20.20
2018-11-20T10:06:53.290Z,19.30
2018-11-20T10:07:53.208Z,18.40
2018-11-20T10:08:55.348Z,19.70
2018-11-20T10:09:53.021Z,19.60
2018-11-20T10:10:52.963Z,19.70
2018-11-20T10:11:53.269Z,19.00
2018-11-20T10:12:53.416Z,19.70
2018-11-20T10:13:52.681Z,19.10
2018-11-20T10:14:54.456Z,19.70
2018-11-20T10:15:52.982Z,19.30
2018-11-20T10:16:53.795Z,20.10
2018-11-20T10:17:53.219Z,19.10
2018-11-20T10:18:53.907Z,18.70
2018-11-20T10:19:55.547Z,19.10
2018-11-20T10:20:53.520Z,19.60
2018-11-20T10:21:52.970Z,20.50
2018-11-20T10:22:53.511Z,19.70
2018-11-20T10:23:53.641Z,19.80
2018-11-20T10:24:53.025Z,19.30
2018-11-20T10:25:53.226Z,18.80
2018-11-20T10:26:52.958Z,19.20
2018-11-20T10:27:53.124Z,18.60
2018-11-20T10:28:55.323Z,18.70
2018-11-20T10:29:54.987Z,19.10
2018-11-20T10:30:52.924Z,19.60
2018-11-20T10:31:52.728Z,19.50
2018-11-20T10:32:53.167Z,19.10
2018-11-20T10:33:53.376Z,19.60
2018-11-20T10:34:52.569Z,19.30
2018-11-20T10:35:53.474Z,18.80
2018-11-20T10:36:54.347Z,18.90
2018-11-20T10:37:53.437Z,20.00
2018-11-20T10:38:53.391Z,19.70
2018-11-20T10:39:52.909Z,19.00
2018-11-20T10:40:53.504Z,20.00
2018-11-20T10:41:53.765Z,19.30
2018-11-20T10:42:53.020Z,19.10
2018-11-20T10:43:53.944Z,19.70
2018-11-20T10:44:53.378Z,18.80
2018-11-20T10:45:52.963Z,19.20
2018-11-20T10:46:52.939Z,19.30
2018-11-20T10:47:53.291Z,18.60
2018-11-20T10:48:52.922Z,18.90
2018-11-20T10:49:52.917Z,18.80
2018-11-20T10:50:53.408Z,19.10
2018-11-20T10:51:52.521Z,19.60
2018-11-20T10:52:52.913Z,19.10
2018-11-20T10:53:53.326Z,19.00
2018-11-20T10:54:52.977Z,18.80
2018-11-20T10:55:52.966Z,19.60
2018-11-20T10:56:53.431Z,19.80
2018-11-20T10:57:52.946Z,19.70
2018-11-20T10:58:52.979Z,19.20
2018-11-20T10:59:53.038Z,19.00
2018-11-20T11:00:52.999Z,19.70
2018-11-20T11:01:53.021Z,19.10
2018-11-20T11:02:53.411Z,18.50
2018-11-20T11:03:53.084Z,19.10
2018-11-20T11:04:53.421Z,19.20
2018-11-20T11:05:53.014Z,18.90
2018-11-20T11:06:53.483Z,19.30
2018-11-20T11:07:52.920Z,19.50
2018-11-20T11:08:52.824Z,19.80
2018-11-20T11:09:53.342Z,19.90
2018-11-20T11:10:53.919Z,19.20
2018-11-20T11:11:53.023Z,18.80
2018-11-20T11:12:52.525Z,19.00
2018-11-20T11:13:53.033Z,19.30
2018-11-20T11:14:53.035Z,18.80
2018-11-20T11:15:52.977Z,19.50
2018-11-20T11:16:52.432Z,19.10
2018-11-20T11:17:53.382Z,19.20
2018-11-20T11:18:52.980Z,19.10
2018-11-20T11:19:53.273Z,18.30
2018-11-20T11:20:53.490Z,19.70
2018-11-20T11:21:53.397Z,18.60
2018-11-20T11:22:52.658Z,20.50
2018-11-20T11:23:53.259Z,19.80
2018-11-20T11:24:52.978Z,20.90
2018-11-20T11:25:52.967Z,19.60
2018-11-20T11:26:52.059Z,19.50
2018-11-20T11:27:55.287Z,19.20
2018-11-20T11:28:52.997Z,18.50
2018-11-20T11:29:52.928Z,19.50
2018-11-20T11:30:53.287Z,19.80
2018-11-20T11:31:54.872Z,19.60
2018-11-20T11:32:53.018Z,19.20
2018-11-20T11:33:53.049Z,19.80
2018-11-20T11:34:53.303Z,19.50
2018-11-20T11:36:16.092Z,17.90
2018-11-20T11:36:53.596Z,19.00
2018-11-20T11:37:52.921Z,18.90
2018-11-20T11:38:52.869Z,18.30
2018-11-20T11:39:53.033Z,18.90
2018-11-20T11:40:54.561Z,20.00
2018-11-20T11:41:54.007Z,18.60
2018-11-20T11:42:52.520Z,19.80
2018-11-20T11:43:52.463Z,19.60
2018-11-20T11:44:52.469Z,19.70
2018-11-20T11:45:52.490Z,19.40
2018-11-20T11:46:53.110Z,19.40
2018-11-20T11:47:55.775Z,18.80
2018-11-20T11:48:52.285Z,19.60
2018-11-20T11:49:53.009Z,20.50
2018-11-20T11:50:52.479Z,19.80
2018-11-20T11:51:52.476Z,19.90
2018-11-20T11:52:52.496Z,20.00
2018-11-20T11:53:52.305Z,20.70
2018-11-20T11:54:52.237Z,20.20
2018-11-20T11:55:52.265Z,19.70
2018-11-20T11:56:52.896Z,20.80
2018-11-20T11:57:51.955Z,20.10
2018-11-20T11:58:52.428Z,19.30
2018-11-20T11:59:54.458Z,19.60
2018-11-20T12:00:52.478Z,19.30
2018-11-20T12:03:52.521Z,19.90
2018-11-20T12:04:52.372Z,19.70
2018-11-20T12:05:55.924Z,20.80
2018-11-20T12:06:52.491Z,20.00
2018-11-20T12:07:52.424Z,20.30
2018-11-20T12:08:52.540Z,19.90
2018-11-20T12:09:52.212Z,20.30
2018-11-20T12:10:52.868Z,20.60
2018-11-20T12:11:52.283Z,19.70
2018-11-20T12:12:52.793Z,19.50
2018-11-20T12:13:52.916Z,20.00
2018-11-20T12:14:52.143Z,20.40
2018-11-20T12:15:54.640Z,19.70
2018-11-20T12:16:52.858Z,20.30
2018-11-20T12:17:52.480Z,20.40
2018-11-20T12:18:54.343Z,20.40
2018-11-20T12:19:54.426Z,20.00
2018-11-20T12:20:52.806Z,20.40
2018-11-20T12:21:52.433Z,21.00
2018-11-20T12:22:52.598Z,20.80
2018-11-20T12:23:52.939Z,19.50
2018-11-20T12:24:52.956Z,19.90
2018-11-20T12:25:51.774Z,19.60
2018-11-20T12:26:52.270Z,20.60
2018-11-20T12:27:52.737Z,19.30
2018-11-20T12:28:53.134Z,19.90
2018-11-20T12:29:52.879Z,20.00
2018-11-20T12:30:53.637Z,19.60
2018-11-20T12:31:52.794Z,20.00
2018-11-20T12:32:52.354Z,20.40
2018-11-20T12:33:52.808Z,20.70
2018-11-20T12:34:54.419Z,20.20
2018-11-20T12:35:54.617Z,21.00
2018-11-20T12:36:53.633Z,21.10
2018-11-20T12:37:52.278Z,19.80
2018-11-20T12:38:52.260Z,20.00
2018-11-20T12:39:52.290Z,20.10
2018-11-20T12:40:52.822Z,20.70
2018-11-20T12:41:52.260Z,21.30
2018-11-20T12:42:52.237Z,20.50
2018-11-20T12:43:52.511Z,20.10
2018-11-20T12:44:54.378Z,20.40
2018-11-20T12:45:53.864Z,20.40
2018-11-20T12:46:52.434Z,19.80
2018-11-20T12:47:52.947Z,21.30
2018-11-20T12:48:52.926Z,20.40
2018-11-20T12:49:52.521Z,21.20
2018-11-20T12:50:53.008Z,20.30
2018-11-20T12:51:52.934Z,20.80
2018-11-20T12:52:51.850Z,20.80
2018-11-20T12:53:52.825Z,20.00
2018-11-20T12:54:52.464Z,21.00